KCFD

Details ICAO KCFD (CFD)
Name COULTER FLD
Region United States
Timezone America/Chicago (UTC-6.0)
Plans Departing 4
Arriving 3
Stats Elevation 367 ft / 112 m (AMSL)
Location 30.716142° -96.332625°
Runways 2
Magnetic Variation 3.038° E
Sunrise 2017-12-11 13:14:21 UTC / 2017-12-11 07:14:21 Local
Sunset 2017-12-11 23:25:59 UTC / 2017-12-11 17:25:59 Local
Advertisement - Login to hide

Runways

ID Width Length Bearing (true) Bearing (mag) Surface Threshold Offset Overrun Length
14 75 ft / 23 m 4,008 ft / 1,222 m 151.77° 148.73° Asphalt 0 ft / 0 m 0 ft / 0 m
17 40 ft / 12 m 1,334 ft / 407 m 180.00° 176.96° Grass 0 ft / 0 m 0 ft / 0 m
32 75 ft / 23 m 4,008 ft / 1,222 m 331.77° 328.73° Asphalt 0 ft / 0 m 0 ft / 0 m
35 40 ft / 12 m 1,334 ft / 407 m 0.00° 356.96° Grass 0 ft / 0 m 0 ft / 0 m

Map

Weather


0- 5 10 15 20 25 30 35+ Temperature / ° C

Clouds and Precipitation
Forecast for 2017-12-12 00:00 UTC. Updated 2 hours ago

Ground ~20,000 ft ~40,000 ft Winds

METAR

KCFD 112055Z AUTO 00000KT 10SM CLR 22/03 A3018 RMK AO2 T02150031

TAF

Not found

Frequencies

Unicom 123.00 MHz CTAF/UNICOM
Warning: Do not use this data for real-world aviation or navigation. No guarantee of current accuracy is given.